sensor_id;sensor_type;location;lat;lon;timestamp;pressure;altitude;pressure_sealevel;temperature;humidity
21185;BME280;18176;49.502;11.754;2023-11-19T00:01:01;96964.88;;;8.88;75.52
21185;BME280;18176;49.502;11.754;2023-11-19T00:05:07;96949.88;;;8.82;74.85
21185;BME280;18176;49.502;11.754;2023-11-19T00:09:09;96947.22;;;9.06;74.79
21185;BME280;18176;49.502;11.754;2023-11-19T00:13:11;96946.41;;;9.06;74.81
21185;BME280;18176;49.502;11.754;2023-11-19T00:17:11;96944.94;;;9.10;74.74
21185;BME280;18176;49.502;11.754;2023-11-19T00:21:14;96936.66;;;9.06;74.82
21185;BME280;18176;49.502;11.754;2023-11-19T00:25:14;96933.84;;;9.01;75.10
21185;BME280;18176;49.502;11.754;2023-11-19T00:29:15;96925.50;;;9.23;74.28
21185;BME280;18176;49.502;11.754;2023-11-19T00:33:16;96886.44;;;8.88;74.61
21185;BME280;18176;49.502;11.754;2023-11-19T00:37:19;96925.78;;;9.14;74.41
21185;BME280;18176;49.502;11.754;2023-11-19T00:41:20;96937.22;;;9.08;74.98
21185;BME280;18176;49.502;11.754;2023-11-19T00:45:21;96898.00;;;8.69;76.85
21185;BME280;18176;49.502;11.754;2023-11-19T00:49:21;96894.84;;;8.61;77.17
21185;BME280;18176;49.502;11.754;2023-11-19T00:53:24;96907.28;;;8.96;76.53
21185;BME280;18176;49.502;11.754;2023-11-19T00:57:24;96894.34;;;9.06;75.29
21185;BME280;18176;49.502;11.754;2023-11-19T01:01:24;96876.13;;;8.98;75.78
21185;BME280;18176;49.502;11.754;2023-11-19T01:05:24;96889.19;;;8.93;76.44
21185;BME280;18176;49.502;11.754;2023-11-19T01:09:28;96878.50;;;8.88;76.72
21185;BME280;18176;49.502;11.754;2023-11-19T01:13:29;96877.38;;;8.96;76.66
21185;BME280;18176;49.502;11.754;2023-11-19T01:17:29;96873.06;;;9.01;76.54
21185;BME280;18176;49.502;11.754;2023-11-19T01:21:30;96883.72;;;9.13;75.74
21185;BME280;18176;49.502;11.754;2023-11-19T01:25:33;96872.22;;;9.19;75.76
21185;BME280;18176;49.502;11.754;2023-11-19T01:29:35;96875.34;;;9.16;75.84
21185;BME280;18176;49.502;11.754;2023-11-19T01:33:37;96873.47;;;9.16;75.92
21185;BME280;18176;49.502;11.754;2023-11-19T01:37:37;96871.72;;;9.29;75.61
21185;BME280;18176;49.502;11.754;2023-11-19T01:41:40;96866.94;;;9.19;75.62
21185;BME280;18176;49.502;11.754;2023-11-19T01:45:40;96864.69;;;9.23;75.76
21185;BME280;18176;49.502;11.754;2023-11-19T01:49:40;96837.97;;;9.12;75.74
21185;BME280;18176;49.502;11.754;2023-11-19T01:53:41;96846.69;;;9.13;76.19
21185;BME280;18176;49.502;11.754;2023-11-19T01:57:44;96826.50;;;9.00;75.89
21185;BME280;18176;49.502;11.754;2023-11-19T02:01:44;96845.44;;;9.15;76.11
21185;BME280;18176;49.502;11.754;2023-11-19T02:05:56;96821.34;;;9.24;76.03
21185;BME280;18176;49.502;11.754;2023-11-19T02:09:57;96811.94;;;9.28;75.64
21185;BME280;18176;49.502;11.754;2023-11-19T02:14:03;96791.00;;;9.26;75.84
21185;BME280;18176;49.502;11.754;2023-11-19T02:18:20;96796.03;;;9.16;76.49
21185;BME280;18176;49.502;11.754;2023-11-19T02:22:21;96790.19;;;9.26;75.88
21185;BME280;18176;49.502;11.754;2023-11-19T02:26:32;96767.59;;;9.30;75.74
21185;BME280;18176;49.502;11.754;2023-11-19T02:30:38;96762.53;;;9.40;75.26
21185;BME280;18176;49.502;11.754;2023-11-19T02:34:38;96776.16;;;9.55;74.93
21185;BME280;18176;49.502;11.754;2023-11-19T02:38:38;96743.94;;;9.35;74.64
21185;BME280;18176;49.502;11.754;2023-11-19T02:42:39;96767.97;;;9.45;75.25
21185;BME280;18176;49.502;11.754;2023-11-19T02:46:41;96780.94;;;9.35;75.51
21185;BME280;18176;49.502;11.754;2023-11-19T02:50:42;96776.84;;;9.50;75.28
21185;BME280;18176;49.502;11.754;2023-11-19T02:54:43;96766.16;;;9.57;74.83
21185;BME280;18176;49.502;11.754;2023-11-19T02:58:44;96757.97;;;9.47;75.26
21185;BME280;18176;49.502;11.754;2023-11-19T03:02:49;96759.34;;;9.49;75.03
21185;BME280;18176;49.502;11.754;2023-11-19T03:06:56;96772.47;;;9.56;75.13
21185;BME280;18176;49.502;11.754;2023-11-19T03:10:57;96772.28;;;9.69;74.87
21185;BME280;18176;49.502;11.754;2023-11-19T03:14:57;96760.19;;;9.73;74.50
21185;BME280;18176;49.502;11.754;2023-11-19T03:19:01;96761.00;;;9.62;74.96
21185;BME280;18176;49.502;11.754;2023-11-19T03:23:01;96756.38;;;9.46;75.62
21185;BME280;18176;49.502;11.754;2023-11-19T03:27:04;96762.38;;;9.53;75.75
21185;BME280;18176;49.502;11.754;2023-11-19T03:31:05;96734.19;;;9.70;74.73
21185;BME280;18176;49.502;11.754;2023-11-19T03:35:09;96751.56;;;9.77;74.60
21185;BME280;18176;49.502;11.754;2023-11-19T03:39:09;96725.34;;;9.64;75.03
21185;BME280;18176;49.502;11.754;2023-11-19T03:43:09;96706.72;;;9.71;74.78
21185;BME280;18176;49.502;11.754;2023-11-19T03:47:10;96716.31;;;9.42;75.95
21185;BME280;18176;49.502;11.754;2023-11-19T03:51:13;96724.06;;;9.55;75.86
21185;BME280;18176;49.502;11.754;2023-11-19T03:55:14;96714.06;;;9.46;75.76
21185;BME280;18176;49.502;11.754;2023-11-19T03:59:14;96694.97;;;9.44;76.29
21185;BME280;18176;49.502;11.754;2023-11-19T04:03:18;96691.38;;;9.38;76.39
21185;BME280;18176;49.502;11.754;2023-11-19T04:07:21;96655.38;;;9.26;76.84
21185;BME280;18176;49.502;11.754;2023-11-19T04:11:21;96617.78;;;9.12;77.30
21185;BME280;18176;49.502;11.754;2023-11-19T04:15:22;96628.72;;;9.15;77.97
21185;BME280;18176;49.502;11.754;2023-11-19T04:19:22;96588.84;;;9.29;76.89
21185;BME280;18176;49.502;11.754;2023-11-19T04:23:25;96597.81;;;9.28;77.20
21185;BME280;18176;49.502;11.754;2023-11-19T04:27:25;96588.50;;;9.25;77.34
21185;BME280;18176;49.502;11.754;2023-11-19T04:31:29;96620.31;;;9.65;75.96
21185;BME280;18176;49.502;11.754;2023-11-19T04:35:30;96637.22;;;9.87;74.94
21185;BME280;18176;49.502;11.754;2023-11-19T04:39:33;96636.53;;;9.80;75.31
21185;BME280;18176;49.502;11.754;2023-11-19T04:43:34;96621.25;;;9.82;74.63
21185;BME280;18176;49.502;11.754;2023-11-19T04:47:34;96637.22;;;9.87;74.55
21185;BME280;18176;49.502;11.754;2023-11-19T04:51:39;96666.78;;;9.96;74.46
21185;BME280;18176;49.502;11.754;2023-11-19T04:55:42;96665.06;;;9.89;74.82
21185;BME280;18176;49.502;11.754;2023-11-19T04:59:43;96679.78;;;9.97;74.54
21185;BME280;18176;49.502;11.754;2023-11-19T05:03:43;96673.09;;;10.06;74.55
21185;BME280;18176;49.502;11.754;2023-11-19T05:07:44;96671.16;;;10.13;74.21
21185;BME280;18176;49.502;11.754;2023-11-19T05:11:47;96666.44;;;10.15;74.13
21185;BME280;18176;49.502;11.754;2023-11-19T05:15:48;96661.47;;;10.30;73.51
21185;BME280;18176;49.502;11.754;2023-11-19T05:19:48;96647.25;;;10.36;73.65
21185;BME280;18176;49.502;11.754;2023-11-19T05:23:48;96638.47;;;10.08;74.68
21185;BME280;18176;49.502;11.754;2023-11-19T05:27:51;96635.31;;;10.22;74.52
21185;BME280;18176;49.502;11.754;2023-11-19T05:31:51;96633.13;;;10.31;74.40
21185;BME280;18176;49.502;11.754;2023-11-19T05:35:52;96634.59;;;10.38;74.63
21185;BME280;18176;49.502;11.754;2023-11-19T05:39:52;96614.16;;;10.22;74.94
21185;BME280;18176;49.502;11.754;2023-11-19T05:43:55;96617.31;;;10.47;74.50
21185;BME280;18176;49.502;11.754;2023-11-19T05:47:55;96609.94;;;10.49;74.65
21185;BME280;18176;49.502;11.754;2023-11-19T05:51:55;96613.59;;;10.48;75.02
21185;BME280;18176;49.502;11.754;2023-11-19T05:55:55;96601.88;;;10.44;75.32
21185;BME280;18176;49.502;11.754;2023-11-19T05:59:58;96589.31;;;10.51;75.65
21185;BME280;18176;49.502;11.754;2023-11-19T06:04:07;96578.56;;;10.58;74.99
21185;BME280;18176;49.502;11.754;2023-11-19T06:08:08;96588.13;;;10.76;75.46
21185;BME280;18176;49.502;11.754;2023-11-19T06:12:08;96602.59;;;10.85;75.05
21185;BME280;18176;49.502;11.754;2023-11-19T06:16:12;96590.31;;;10.79;75.64
21185;BME280;18176;49.502;11.754;2023-11-19T06:20:13;96590.72;;;10.87;75.40
21185;BME280;18176;49.502;11.754;2023-11-19T06:24:14;96592.16;;;10.78;75.86
21185;BME280;18176;49.502;11.754;2023-11-19T06:28:15;96592.50;;;10.82;75.62
21185;BME280;18176;49.502;11.754;2023-11-19T06:32:18;96604.00;;;11.04;75.46
21185;BME280;18176;49.502;11.754;2023-11-19T06:36:18;96606.31;;;11.17;74.99
21185;BME280;18176;49.502;11.754;2023-11-19T06:40:19;96611.22;;;11.25;74.73
21185;BME280;18176;49.502;11.754;2023-11-19T06:44:19;96615.88;;;11.18;74.79
21185;BME280;18176;49.502;11.754;2023-11-19T06:48:22;96615.00;;;11.29;74.64
21185;BME280;18176;49.502;11.754;2023-11-19T06:52:22;96596.91;;;11.26;74.60
21185;BME280;18176;49.502;11.754;2023-11-19T06:56:24;96605.38;;;11.23;74.46
21185;BME280;18176;49.502;11.754;2023-11-19T07:00:24;96598.78;;;11.09;74.79
21185;BME280;18176;49.502;11.754;2023-11-19T07:04:27;96608.09;;;11.28;74.34
21185;BME280;18176;49.502;11.754;2023-11-19T07:08:27;96583.66;;;11.26;73.90
21185;BME280;18176;49.502;11.754;2023-11-19T07:12:28;96613.47;;;11.33;74.33
21185;BME280;18176;49.502;11.754;2023-11-19T07:16:28;96615.47;;;11.26;74.57
21185;BME280;18176;49.502;11.754;2023-11-19T07:20:31;96615.47;;;11.43;74.59
21185;BME280;18176;49.502;11.754;2023-11-19T07:24:31;96619.81;;;11.49;74.08
21185;BME280;18176;49.502;11.754;2023-11-19T07:28:31;96615.94;;;11.56;73.85
21185;BME280;18176;49.502;11.754;2023-11-19T07:32:32;96621.13;;;11.46;74.61
21185;BME280;18176;49.502;11.754;2023-11-19T07:36:35;96610.31;;;11.53;74.53
21185;BME280;18176;49.502;11.754;2023-11-19T07:40:35;96590.66;;;11.32;74.32
21185;BME280;18176;49.502;11.754;2023-11-19T07:44:35;96619.78;;;11.82;73.62
21185;BME280;18176;49.502;11.754;2023-11-19T07:48:36;96586.19;;;11.54;73.69
21185;BME280;18176;49.502;11.754;2023-11-19T07:52:39;96604.38;;;11.62;74.11
21185;BME280;18176;49.502;11.754;2023-11-19T07:56:39;96586.81;;;11.61;74.40
21185;BME280;18176;49.502;11.754;2023-11-19T08:00:40;96612.19;;;11.90;74.09
21185;BME280;18176;49.502;11.754;2023-11-19T08:04:40;96599.19;;;11.89;73.65
21185;BME280;18176;49.502;11.754;2023-11-19T08:08:46;96621.41;;;12.05;73.44
21185;BME280;18176;49.502;11.754;2023-11-19T08:12:46;96593.56;;;11.85;73.62
21185;BME280;18176;49.502;11.754;2023-11-19T08:16:46;96614.94;;;11.95;74.45
21185;BME280;18176;49.502;11.754;2023-11-19T08:20:46;96619.53;;;12.22;73.38
21185;BME280;18176;49.502;11.754;2023-11-19T08:24:53;96588.63;;;12.16;73.62
21185;BME280;18176;49.502;11.754;2023-11-19T08:28:53;96609.59;;;12.39;73.25
21185;BME280;18176;49.502;11.754;2023-11-19T08:32:55;96598.88;;;12.29;73.68
21185;BME280;18176;49.502;11.754;2023-11-19T08:36:56;96593.53;;;12.50;72.97
21185;BME280;18176;49.502;11.754;2023-11-19T08:40:58;96594.38;;;12.78;72.61
21185;BME280;18176;49.502;11.754;2023-11-19T08:44:59;96595.19;;;12.83;72.93
21185;BME280;18176;49.502;11.754;2023-11-19T08:48:59;96601.41;;;13.20;72.12
21185;BME280;18176;49.502;11.754;2023-11-19T08:53:00;96602.94;;;13.48;71.86
21185;BME280;18176;49.502;11.754;2023-11-19T08:57:06;96588.41;;;13.66;73.40
21185;BME280;18176;49.502;11.754;2023-11-19T09:01:07;96581.19;;;14.08;73.92
21185;BME280;18176;49.502;11.754;2023-11-19T09:05:08;96570.13;;;14.31;73.34
21185;BME280;18176;49.502;11.754;2023-11-19T09:09:11;96558.41;;;14.37;73.46
21185;BME280;18176;49.502;11.754;2023-11-19T09:13:14;96574.16;;;14.49;72.82
21185;BME280;18176;49.502;11.754;2023-11-19T09:17:14;96591.78;;;14.55;72.42
21185;BME280;18176;49.502;11.754;2023-11-19T09:21:15;96580.53;;;14.38;72.95
21185;BME280;18176;49.502;11.754;2023-11-19T09:25:15;96589.88;;;14.45;73.63
21185;BME280;18176;49.502;11.754;2023-11-19T09:29:19;96562.16;;;14.36;74.34
21185;BME280;18176;49.502;11.754;2023-11-19T09:33:19;96592.06;;;14.63;75.14
21185;BME280;18176;49.502;11.754;2023-11-19T09:37:20;96586.47;;;14.55;77.64
21185;BME280;18176;49.502;11.754;2023-11-19T09:41:20;96589.47;;;15.09;75.27
21185;BME280;18176;49.502;11.754;2023-11-19T09:45:28;96588.94;;;14.92;76.56
21185;BME280;18176;49.502;11.754;2023-11-19T09:49:30;96585.19;;;15.18;76.20
21185;BME280;18176;49.502;11.754;2023-11-19T09:53:33;96585.22;;;15.48;74.83
21185;BME280;18176;49.502;11.754;2023-11-19T09:57:35;96584.66;;;15.71;75.00
21185;BME280;18176;49.502;11.754;2023-11-19T10:01:41;96585.22;;;15.48;75.29
21185;BME280;18176;49.502;11.754;2023-11-19T10:05:42;96592.31;;;15.98;74.36
21185;BME280;18176;49.502;11.754;2023-11-19T10:09:43;96560.53;;;15.91;73.76
21185;BME280;18176;49.502;11.754;2023-11-19T10:13:44;96559.50;;;16.46;72.44
21185;BME280;18176;49.502;11.754;2023-11-19T10:17:48;96568.97;;;16.82;70.42
21185;BME280;18176;49.502;11.754;2023-11-19T10:21:49;96571.41;;;16.74;69.75
21185;BME280;18176;49.502;11.754;2023-11-19T10:25:53;96579.91;;;16.86;69.71
21185;BME280;18176;49.502;11.754;2023-11-19T10:29:54;96576.34;;;16.57;70.78
21185;BME280;18176;49.502;11.754;2023-11-19T10:33:56;96558.69;;;16.51;70.33
21185;BME280;18176;49.502;11.754;2023-11-19T10:38:00;96565.00;;;16.70;70.02
21185;BME280;18176;49.502;11.754;2023-11-19T10:42:15;96554.03;;;17.10;68.89
21185;BME280;18176;49.502;11.754;2023-11-19T10:46:17;96553.13;;;16.86;69.03
21185;BME280;18176;49.502;11.754;2023-11-19T10:50:23;96554.25;;;16.80;68.92
21185;BME280;18176;49.502;11.754;2023-11-19T10:54:24;96539.81;;;17.15;67.68
21185;BME280;18176;49.502;11.754;2023-11-19T10:58:28;96551.47;;;16.95;67.69
21185;BME280;18176;49.502;11.754;2023-11-19T11:02:35;96534.22;;;17.11;68.00
21185;BME280;18176;49.502;11.754;2023-11-19T11:06:42;96538.28;;;17.04;67.38
21185;BME280;18176;49.502;11.754;2023-11-19T11:10:45;96515.50;;;17.06;66.95
21185;BME280;18176;49.502;11.754;2023-11-19T11:14:49;96538.06;;;17.00;67.30
21185;BME280;18176;49.502;11.754;2023-11-19T11:18:51;96541.41;;;16.82;67.52
21185;BME280;18176;49.502;11.754;2023-11-19T11:27:51;96539.44;;;16.54;69.53
21185;BME280;18176;49.502;11.754;2023-11-19T11:32:18;96533.28;;;16.53;70.55
21185;BME280;18176;49.502;11.754;2023-11-19T11:36:23;96534.94;;;16.88;69.73
21185;BME280;18176;49.502;11.754;2023-11-19T11:40:27;96493.56;;;16.75;69.87
21185;BME280;18176;49.502;11.754;2023-11-19T11:44:59;96531.72;;;17.48;67.13
21185;BME280;18176;49.502;11.754;2023-11-19T11:49:04;96507.09;;;18.41;64.49
21185;BME280;18176;49.502;11.754;2023-11-19T11:53:15;96516.69;;;18.05;63.93
21185;BME280;18176;49.502;11.754;2023-11-19T11:57:18;96515.69;;;18.38;62.89
21185;BME280;18176;49.502;11.754;2023-11-19T12:01:20;96512.13;;;18.24;62.18
21185;BME280;18176;49.502;11.754;2023-11-19T12:05:25;96500.41;;;18.39;62.16
21185;BME280;18176;49.502;11.754;2023-11-19T12:09:26;96508.22;;;18.35;61.52
21185;BME280;18176;49.502;11.754;2023-11-19T12:13:52;96509.03;;;18.91;59.65
21185;BME280;18176;49.502;11.754;2023-11-19T12:17:54;96504.97;;;18.38;60.67
21185;BME280;18176;49.502;11.754;2023-11-19T12:21:55;96488.59;;;18.21;61.18
21185;BME280;18176;49.502;11.754;2023-11-19T12:25:59;96495.47;;;17.85;62.25
21185;BME280;18176;49.502;11.754;2023-11-19T12:30:05;96495.69;;;17.88;62.88
21185;BME280;18176;49.502;11.754;2023-11-19T12:34:07;96489.66;;;17.78;64.93
21185;BME280;18176;49.502;11.754;2023-11-19T12:38:19;96484.47;;;17.34;65.85
21185;BME280;18176;49.502;11.754;2023-11-19T12:42:19;96473.97;;;17.14;65.86
21185;BME280;18176;49.502;11.754;2023-11-19T12:46:23;96450.25;;;17.31;66.22
21185;BME280;18176;49.502;11.754;2023-11-19T12:50:24;96446.44;;;17.08;66.96
21185;BME280;18176;49.502;11.754;2023-11-19T12:54:35;96470.69;;;17.22;66.87
21185;BME280;18176;49.502;11.754;2023-11-19T12:58:36;96464.78;;;16.91;67.85
21185;BME280;18176;49.502;11.754;2023-11-19T13:02:52;96437.28;;;16.47;68.74
21185;BME280;18176;49.502;11.754;2023-11-19T13:06:53;96465.34;;;16.88;68.45
21185;BME280;18176;49.502;11.754;2023-11-19T13:10:57;96474.06;;;16.70;69.82
21185;BME280;18176;49.502;11.754;2023-11-19T13:14:57;96459.66;;;16.66;70.11
21185;BME280;18176;49.502;11.754;2023-11-19T13:19:00;96487.94;;;16.72;70.70
21185;BME280;18176;49.502;11.754;2023-11-19T13:23:03;96485.50;;;16.37;70.97
21185;BME280;18176;49.502;11.754;2023-11-19T13:27:04;96492.97;;;16.35;71.11
21185;BME280;18176;49.502;11.754;2023-11-19T13:31:05;96476.03;;;16.10;71.60
21185;BME280;18176;49.502;11.754;2023-11-19T13:35:10;96494.81;;;16.39;70.42
21185;BME280;18176;49.502;11.754;2023-11-19T13:39:10;96490.28;;;16.40;70.52
21185;BME280;18176;49.502;11.754;2023-11-19T13:43:20;96488.09;;;16.52;69.67
21185;BME280;18176;49.502;11.754;2023-11-19T13:47:21;96482.22;;;16.45;69.42
21185;BME280;18176;49.502;11.754;2023-11-19T13:51:25;96473.88;;;16.12;70.65
21185;BME280;18176;49.502;11.754;2023-11-19T13:55:25;96443.00;;;15.86;70.57
21185;BME280;18176;49.502;11.754;2023-11-19T13:59:26;96491.88;;;16.41;70.31
21185;BME280;18176;49.502;11.754;2023-11-19T14:03:26;96483.91;;;16.36;70.07
21185;BME280;18176;49.502;11.754;2023-11-19T14:07:29;96470.56;;;16.69;69.16
21185;BME280;18176;49.502;11.754;2023-11-19T14:11:30;96475.41;;;16.67;68.97
21185;BME280;18176;49.502;11.754;2023-11-19T14:15:30;96463.28;;;16.80;68.96
21185;BME280;18176;49.502;11.754;2023-11-19T14:19:30;96457.19;;;17.03;67.88
21185;BME280;18176;49.502;11.754;2023-11-19T14:23:34;96473.88;;;16.90;68.36
21185;BME280;18176;49.502;11.754;2023-11-19T14:27:34;96470.63;;;16.98;68.35
21185;BME280;18176;49.502;11.754;2023-11-19T14:31:35;96472.88;;;16.86;68.89
21185;BME280;18176;49.502;11.754;2023-11-19T14:35:35;96484.53;;;17.00;68.21
21185;BME280;18176;49.502;11.754;2023-11-19T14:39:38;96478.75;;;16.83;68.21
21185;BME280;18176;49.502;11.754;2023-11-19T14:43:39;96475.56;;;16.81;67.80
21185;BME280;18176;49.502;11.754;2023-11-19T14:47:40;96471.44;;;16.99;67.00
21185;BME280;18176;49.502;11.754;2023-11-19T14:51:40;96481.56;;;16.68;66.42
21185;BME280;18176;49.502;11.754;2023-11-19T14:55:46;96461.28;;;16.18;67.84
21185;BME280;18176;49.502;11.754;2023-11-19T14:59:47;96495.72;;;16.30;68.05
21185;BME280;18176;49.502;11.754;2023-11-19T15:03:47;96473.16;;;15.97;69.27
21185;BME280;18176;49.502;11.754;2023-11-19T15:07:52;96475.81;;;16.46;68.33
21185;BME280;18176;49.502;11.754;2023-11-19T15:11:56;96470.44;;;16.51;67.87
21185;BME280;18176;49.502;11.754;2023-11-19T15:15:57;96471.13;;;16.28;68.19
21185;BME280;18176;49.502;11.754;2023-11-19T15:19:57;96464.84;;;16.03;69.23
21185;BME280;18176;49.502;11.754;2023-11-19T15:23:57;96468.09;;;15.95;69.74
21185;BME280;18176;49.502;11.754;2023-11-19T15:28:00;96469.13;;;15.99;69.41
21185;BME280;18176;49.502;11.754;2023-11-19T15:32:00;96477.69;;;16.01;69.93
21185;BME280;18176;49.502;11.754;2023-11-19T15:36:01;96484.53;;;16.23;69.17
21185;BME280;18176;49.502;11.754;2023-11-19T15:40:06;96479.81;;;15.99;68.84
21185;BME280;18176;49.502;11.754;2023-11-19T15:44:12;96486.75;;;16.00;69.71
21185;BME280;18176;49.502;11.754;2023-11-19T15:48:12;96499.34;;;16.00;69.50
21185;BME280;18176;49.502;11.754;2023-11-19T15:52:12;96493.59;;;16.22;68.90
21185;BME280;18176;49.502;11.754;2023-11-19T15:56:14;96484.03;;;16.15;69.53
21185;BME280;18176;49.502;11.754;2023-11-19T16:00:18;96495.84;;;15.99;70.21
21185;BME280;18176;49.502;11.754;2023-11-19T16:04:19;96523.59;;;16.08;69.70
21185;BME280;18176;49.502;11.754;2023-11-19T16:08:20;96493.75;;;15.86;70.22
21185;BME280;18176;49.502;11.754;2023-11-19T16:12:20;96511.78;;;15.45;71.36
21185;BME280;18176;49.502;11.754;2023-11-19T16:16:25;96500.31;;;15.45;71.09
21185;BME280;18176;49.502;11.754;2023-11-19T16:20:26;96498.16;;;15.27;71.26
21185;BME280;18176;49.502;11.754;2023-11-19T16:24:27;96497.94;;;15.13;72.26
21185;BME280;18176;49.502;11.754;2023-11-19T16:28:27;96516.81;;;15.72;70.13
21185;BME280;18176;49.502;11.754;2023-11-19T16:32:31;96507.13;;;15.86;69.36
21185;BME280;18176;49.502;11.754;2023-11-19T16:36:32;96510.06;;;15.85;69.18
21185;BME280;18176;49.502;11.754;2023-11-19T16:40:32;96504.50;;;15.76;69.44
21185;BME280;18176;49.502;11.754;2023-11-19T16:44:36;96513.06;;;15.73;69.71
21185;BME280;18176;49.502;11.754;2023-11-19T16:48:40;96516.81;;;15.72;69.54
21185;BME280;18176;49.502;11.754;2023-11-19T16:52:40;96539.22;;;15.76;69.35
21185;BME280;18176;49.502;11.754;2023-11-19T16:56:41;96524.25;;;15.70;69.33
21185;BME280;18176;49.502;11.754;2023-11-19T17:00:42;96505.38;;;15.41;69.34
21185;BME280;18176;49.502;11.754;2023-11-19T17:04:45;96517.38;;;15.29;69.92
21185;BME280;18176;49.502;11.754;2023-11-19T17:08:45;96528.63;;;15.06;70.35
21185;BME280;18176;49.502;11.754;2023-11-19T17:12:46;96534.50;;;14.83;71.53
21185;BME280;18176;49.502;11.754;2023-11-19T17:16:46;96529.44;;;14.96;71.04
21185;BME280;18176;49.502;11.754;2023-11-19T17:20:50;96509.69;;;14.97;71.07
21185;BME280;18176;49.502;11.754;2023-11-19T17:24:51;96527.56;;;15.02;71.59
21185;BME280;18176;49.502;11.754;2023-11-19T17:28:51;96520.63;;;15.21;70.32
21185;BME280;18176;49.502;11.754;2023-11-19T17:32:52;96535.78;;;15.40;70.45
21185;BME280;18176;49.502;11.754;2023-11-19T17:36:55;96525.91;;;15.41;70.41
21185;BME280;18176;49.502;11.754;2023-11-19T17:40:55;96535.81;;;15.15;70.38
21185;BME280;18176;49.502;11.754;2023-11-19T17:44:55;96524.34;;;15.20;70.32
21185;BME280;18176;49.502;11.754;2023-11-19T17:48:56;96516.31;;;15.45;69.71
21185;BME280;18176;49.502;11.754;2023-11-19T17:52:58;96545.16;;;15.23;69.90
21185;BME280;18176;49.502;11.754;2023-11-19T17:56:59;96533.41;;;15.29;69.16
21185;BME280;18176;49.502;11.754;2023-11-19T18:01:00;96535.00;;;15.20;69.34
21185;BME280;18176;49.502;11.754;2023-11-19T18:05:00;96536.63;;;15.21;69.05
21185;BME280;18176;49.502;11.754;2023-11-19T18:09:05;96545.69;;;14.90;69.24
21185;BME280;18176;49.502;11.754;2023-11-19T18:13:07;96546.50;;;15.10;68.70
21185;BME280;18176;49.502;11.754;2023-11-19T18:17:08;96549.69;;;14.92;68.65
21185;BME280;18176;49.502;11.754;2023-11-19T18:21:09;96541.94;;;14.81;68.34
21185;BME280;18176;49.502;11.754;2023-11-19T18:25:12;96552.66;;;15.01;68.00
21185;BME280;18176;49.502;11.754;2023-11-19T18:29:15;96554.78;;;15.09;67.77
21185;BME280;18176;49.502;11.754;2023-11-19T18:33:16;96560.66;;;14.96;68.59
21185;BME280;18176;49.502;11.754;2023-11-19T18:37:17;96546.47;;;14.70;68.97
21185;BME280;18176;49.502;11.754;2023-11-19T18:41:19;96549.41;;;14.68;68.82
21185;BME280;18176;49.502;11.754;2023-11-19T18:45:20;96558.47;;;14.62;68.77
21185;BME280;18176;49.502;11.754;2023-11-19T18:49:20;96553.06;;;14.37;70.08
21185;BME280;18176;49.502;11.754;2023-11-19T18:53:21;96556.34;;;14.59;69.24
21185;BME280;18176;49.502;11.754;2023-11-19T18:57:24;96560.31;;;14.62;68.94
21185;BME280;18176;49.502;11.754;2023-11-19T19:01:25;96542.38;;;14.27;69.74
21185;BME280;18176;49.502;11.754;2023-11-19T19:05:28;96564.00;;;14.46;68.95
21185;BME280;18176;49.502;11.754;2023-11-19T19:09:28;96549.28;;;14.18;69.50
21185;BME280;18176;49.502;11.754;2023-11-19T19:13:31;96561.03;;;14.27;69.47
21185;BME280;18176;49.502;11.754;2023-11-19T19:17:32;96558.56;;;14.21;69.30
21185;BME280;18176;49.502;11.754;2023-11-19T19:21:33;96564.47;;;14.23;69.47
21185;BME280;18176;49.502;11.754;2023-11-19T19:25:33;96552.19;;;14.17;68.63
21185;BME280;18176;49.502;11.754;2023-11-19T19:29:36;96566.34;;;14.22;68.39
21185;BME280;18176;49.502;11.754;2023-11-19T19:33:37;96587.63;;;14.17;68.88
21185;BME280;18176;49.502;11.754;2023-11-19T19:37:37;96589.56;;;13.80;66.98
21185;BME280;18176;49.502;11.754;2023-11-19T19:41:37;96579.13;;;14.20;65.95
21185;BME280;18176;49.502;11.754;2023-11-19T19:45:41;96589.31;;;14.33;65.64
21185;BME280;18176;49.502;11.754;2023-11-19T19:49:41;96595.03;;;14.10;65.31
21185;BME280;18176;49.502;11.754;2023-11-19T19:53:42;96594.06;;;14.26;65.76
21185;BME280;18176;49.502;11.754;2023-11-19T19:57:43;96588.25;;;14.34;65.47
21185;BME280;18176;49.502;11.754;2023-11-19T20:01:53;96589.16;;;14.03;66.23
21185;BME280;18176;49.502;11.754;2023-11-19T20:05:56;96596.38;;;14.07;66.33
21185;BME280;18176;49.502;11.754;2023-11-19T20:09:57;96549.66;;;13.85;66.33
21185;BME280;18176;49.502;11.754;2023-11-19T20:13:57;96596.41;;;14.13;66.29
21185;BME280;18176;49.502;11.754;2023-11-19T20:18:01;96581.66;;;13.95;66.54
21185;BME280;18176;49.502;11.754;2023-11-19T20:22:01;96610.47;;;14.03;66.54
21185;BME280;18176;49.502;11.754;2023-11-19T20:26:02;96594.41;;;13.93;66.58
21185;BME280;18176;49.502;11.754;2023-11-19T20:30:05;96588.00;;;13.89;66.18
21185;BME280;18176;49.502;11.754;2023-11-19T20:34:08;96606.34;;;13.80;66.93
21185;BME280;18176;49.502;11.754;2023-11-19T20:38:09;96611.78;;;13.54;67.58
21185;BME280;18176;49.502;11.754;2023-11-19T20:42:10;96611.78;;;13.54;68.41
21185;BME280;18176;49.502;11.754;2023-11-19T20:46:12;96598.97;;;13.51;67.96
21185;BME280;18176;49.502;11.754;2023-11-19T20:50:15;96629.94;;;13.62;67.53
21185;BME280;18176;49.502;11.754;2023-11-19T20:54:19;96623.00;;;13.61;67.44
21185;BME280;18176;49.502;11.754;2023-11-19T20:58:23;96611.56;;;13.23;68.11
21185;BME280;18176;49.502;11.754;2023-11-19T21:02:24;96603.03;;;13.21;68.19
21185;BME280;18176;49.502;11.754;2023-11-19T21:06:27;96634.84;;;13.11;68.58
21185;BME280;18176;49.502;11.754;2023-11-19T21:10:28;96613.81;;;13.42;66.99
21185;BME280;18176;49.502;11.754;2023-11-19T21:14:28;96618.41;;;13.19;66.90